Startpagina
METAR-TAF:

METAR-TAF

Vliegvelden :

Pointe-Noire, Congo

Luchthaven Pointe-Noire

breedte: 04-49S, lengte: 011-54E, hoogte: 17 m

Actueel weer

Dit bericht is 43 minuten geleden gemaakt, om 06:00 UTC
Wind 2 kt uit het oosten
Temperatuur 20°C
Vochtigheid 94%
Druk 1015 hPa
Zicht: 3500 m
Weinig wolken op 700 ft
Verspreide wolken op 2300 ft
nevel

METAR: FCPP 280600Z 10002KT 3500 BR FEW007 SCT023 20/19 Q1015 NOSIG

Tijdstip: 07:43 (06:43 UTC)

Verwachting

Dit bericht is 1 uur en het 43 minuten geleden gemaakt, om 05:00 UTC
Verwachting geldig van 28 om 06 UTC tot 29 om 06 UTC
Wind 4 kt uit het zuiden
Zicht: 3000 m
Verspreide wolken op 1300 ft
Gebroken wolken op 2300 ft
nevel
Wijzigt naar
van 28 om 07 UTC tot 28 om 09 UTC
Zicht: 7000 m
Wijzigt naar
van 29 om 02 UTC tot 29 om 04 UTC
Zicht: 3000 m
nevel

TAF: FCPP 280500Z 2806/2906 18004KT 3000 BR SCT013 BKN023 BECMG 2807/2809 7000 NSW BECMG 2902/2904 3000 BR

Waarnemingen en weersverwachtingen van meer dan 4000 vliegvelden (METAR en TAF).

De beschikbare stations zijn de gele en rode punten op de kaart.

Ga met uw muis naar het station om de naam te zien.

Klik dan om waarnemingen en weersverwachtingen te zien.

kaart wijzigen: klik op de groene knoppen met een zwart kruis om in te zoomen, op de groene knop met een streepje om uit te zoomen of op de groene pijlen voor aangrenzende kaarten.


METAR-TAF: